Flight Track Log - Related Links

Times and Time Zones

All times are in EDT time to prevent confusion due to time zone crossing. See the EJA951 flight status page for this flight to view local times or setup timezone preferences in your user account.


Time Position Orientation Groundspeed Altitude Reporting Facility
EDT Latitude Longitude Course Direction KTS MPH feet Rate Location/Type
Wed 02:39:05 PM 39.0833 -84.4167 201° Southwest 162 186 1,500  Level Cincinnati TRACON
Wed 02:40:23 PM 39.0167 -84.4500 201° Southwest 210 242 5,200 2,086 Climbing Cincinnati TRACON
Wed 02:42:12 PM 38.8925 -84.4814 191° South 266 306 8,000 982 Climbing Indianapolis Center
Wed 02:43:14 PM 38.8189 -84.5008 192° South 267 307 8,000 1,258 Level Indianapolis Center
Wed 02:44:16 PM 38.7444 -84.5247 194° South 272 313 10,600 1,742 Climbing Indianapolis Center
Wed 02:45:18 PM 38.6633 -84.5514 194° South 307 353 11,600 1,452 Climbing Indianapolis Center
Wed 02:46:20 PM 38.5447 -84.5417 176° South 368 423 13,600 2,032 Climbing Indianapolis Center
Wed 02:47:22 PM 38.4406 -84.5336 177° South 373 429 15,800 1,854 Climbing Indianapolis Center
Wed 02:48:23 PM 38.3347 -84.5311 179° South 378 435 17,400 1,512 Climbing Indianapolis Center
Wed 02:49:25 PM 38.2242 -84.5286 179° South 392 451 18,900 1,584 Climbing Indianapolis Center
Wed 02:50:28 PM 38.0914 -84.5253 179° South 407 468 20,700 1,632 Climbing Indianapolis Center
Wed 02:51:30 PM 37.9744 -84.5219 179° South 420 483 22,300 1,548 Climbing Indianapolis Center
Wed 02:52:32 PM 37.8536 -84.5186 179° South 429 494 23,900 1,597 Climbing Indianapolis Center
Wed 02:53:34 PM 37.7267 -84.5172 180° South 451 519 25,600 1,742 Climbing Indianapolis Center
Wed 02:54:36 PM 37.6003 -84.5156 179° South 455 524 27,500 1,984 Climbing Indianapolis Center
Wed 02:55:38 PM 37.4525 -84.5114 179° South 455 524 29,700 1,984 Climbing Indianapolis Center
Wed 02:56:40 PM 37.3247 -84.5081 179° South 459 528 31,600 1,742 Climbing Indianapolis Center
Wed 02:57:42 PM 37.1936 -84.5053 179° South 467 537 33,300 1,694 Climbing Indianapolis Center
Wed 02:58:44 PM 37.0614 -84.5028 179° South 474 545 35,100 1,306 Climbing Indianapolis Center
Wed 02:59:46 PM 36.9264 -84.4994 179° South 483 556 36,000 435 Climbing Indianapolis Center
Wed 03:00:48 PM 36.7594 -84.4958 179° South 511 588 36,000 145 Level Indianapolis Center
Wed 03:01:50 PM 36.6128 -84.4936 179° South 526 605 36,300 1,016 Climbing Indianapolis Center
Wed 03:02:52 PM 36.4764 -84.4900 179° South 516 594 38,100 2,000 Climbing Indianapolis Center
Wed 03:03:44 PM 36.3433 -84.4872 179° South 510 587 40,100 1,554 Climbing Atlanta Center
Wed 03:04:44 PM 36.2222 -84.4839 179° South 500 575 41,000 450 Climbing Atlanta Center
Wed 03:05:44 PM 36.0825 -84.4806 179° South 494 568 41,000  Level Atlanta Center
Wed 03:06:44 PM 35.9428 -84.4800 180° South 494 568 41,000  Level Atlanta Center
Wed 03:07:44 PM 35.8008 -84.4767 179° South 500 575 41,000  Level Atlanta Center
Wed 03:08:44 PM 35.6569 -84.4733 179° South 505 581 41,000  Level Atlanta Center
Wed 03:09:44 PM 35.5153 -84.4700 179° South 511 588 41,000  Level Atlanta Center
Wed 03:10:44 PM 35.3733 -84.4667 179° South 511 588 41,000  Level Atlanta Center
Wed 03:11:44 PM 35.2314 -84.4658 180° South 511 588 41,000  Level Atlanta Center
Wed 03:12:44 PM 35.0894 -84.4628 179° South 511 588 41,000  Level Atlanta Center
Wed 03:13:44 PM 34.9497 -84.4594 179° South 516 594 41,000  Level Atlanta Center
Wed 03:14:44 PM 34.7953 -84.4536 178° South 510 587 41,000  Level Atlanta Center
Wed 03:15:44 PM 34.6492 -84.4528 180° South 510 587 41,000  Level Atlanta Center
Wed 03:16:44 PM 34.5072 -84.4497 179° South 517 595 41,000  Level Atlanta Center
Wed 03:17:44 PM 34.3633 -84.4464 179° South 512 589 41,000  Level Atlanta Center
Wed 03:18:44 PM 34.2172 -84.4433 179° South 517 595 41,000  Level Atlanta Center
Wed 03:19:44 PM 34.0669 -84.4425 180° South 528 608 41,000  Level Atlanta Center
Wed 03:20:44 PM 33.9147 -84.4394 179° South 537 618 41,000  Level Atlanta Center
Wed 03:21:44 PM 33.7728 -84.4361 179° South 530 610 41,000  Level Atlanta Center
Wed 03:22:44 PM 33.6267 -84.4331 179° South 530 610 41,000  Level Atlanta Center
Wed 03:23:44 PM 33.4783 -84.4297 179° South 538 619 41,000  Level Atlanta Center
Wed 03:24:44 PM 33.3322 -84.4292 180° South 530 610 41,000  Level Atlanta Center
Wed 03:25:44 PM 33.1883 -84.4261 179° South 525 604 41,000  Level Atlanta Center
Wed 03:26:44 PM 33.0403 -84.4206 178° South 525 604 41,000  Level Atlanta Center
Wed 03:27:44 PM 32.8942 -84.4197 180° South 531 611 41,000  Level Atlanta Center
Wed 03:28:44 PM 32.7481 -84.4192 180° South 536 617 41,000  Level Atlanta Center
Wed 03:29:44 PM 32.5997 -84.4161 179° South 531 611 41,000  Level Atlanta Center
Wed 03:30:44 PM 32.4536 -84.4131 179° South 531 611 41,000  Level Atlanta Center
Wed 03:31:44 PM 32.3075 -84.4075 178° South 531 611 41,000  Level Atlanta Center
Wed 03:32:44 PM 32.1594 -84.4069 180° South 531 611 41,000  Level Atlanta Center
Wed 03:33:44 PM 32.0092 -84.4039 179° South 531 611 41,000  Level Atlanta Center
Wed 03:34:39 PM 31.8694 -84.3994 178° South 513 590 41,000  Level Jacksonville Center
Wed 03:35:39 PM 31.7233 -84.3994 180° South 508 585 41,000  Level Jacksonville Center
Wed 03:36:40 PM 31.5731 -84.3947 178° South 521 600 41,000  Level Jacksonville Center
Wed 03:37:40 PM 31.4247 -84.3922 179° South 533 613 41,000  Level Jacksonville Center
Wed 03:38:39 PM 31.2767 -84.3875 178° South 533 613 41,000  Level Jacksonville Center
Wed 03:39:40 PM 31.1283 -84.3875 180° South 533 613 41,000  Level Jacksonville Center
Wed 03:40:39 PM 30.9783 -84.3611 171° South 538 619 41,000  Level Jacksonville Center
Wed 03:41:40 PM 30.8372 -84.2886 156° South 538 619 41,000  Level Jacksonville Center
Wed 03:42:39 PM 30.6981 -84.2164 156° South 543 625 41,000  Level Jacksonville Center
Wed 03:43:40 PM 30.5569 -84.1447 156° South 550 633 41,000  Level Jacksonville Center
Wed 03:44:39 PM 30.4197 -84.0753 156° South 545 627 41,000  Level Jacksonville Center
Wed 03:45:40 PM 30.2806 -84.0039 156° South 550 633 41,000  Level Jacksonville Center
Wed 03:46:40 PM 30.1369 -83.9325 157° South 557 641 41,000  Level Jacksonville Center
Wed 03:47:40 PM 29.9956 -83.8614 156° South 557 641 41,000  Level Jacksonville Center
Wed 03:48:39 PM 29.8561 -83.7906 156° South 557 641 41,000  Level Jacksonville Center
Wed 03:49:39 PM 29.7147 -83.7200 157° South 551 634 41,000  Level Jacksonville Center
Wed 03:50:40 PM 29.5733 -83.6494 157° South 556 640 41,000  Level Jacksonville Center
Wed 03:51:40 PM 29.4317 -83.5792 157° South 556 640 41,000  Level Jacksonville Center
Wed 03:52:39 PM 29.3025 -83.5142 156° South 561 646 41,000  Level Jacksonville Center
Wed 03:53:39 PM 29.1589 -83.4419 156° South 561 646 41,000  Level Jacksonville Center
Wed 03:54:39 PM 29.0150 -83.3722 157° South 561 646 41,000 -496 Level Jacksonville Center
Wed 03:55:40 PM 28.8711 -83.3408 169° South 551 634 40,000 -1,300 Descending Jacksonville Center
Wed 03:56:39 PM 28.7231 -83.3425 181° South 528 608 38,400 -1,545 Descending Jacksonville Center
Wed 03:58:58 PM 28.3642 -83.3572 182° South 539 620 34,900 -1,025 Descending Miami Center
Wed 03:59:58 PM 28.2322 -83.3686 184° South 539 620 35,000 50 Climbing Miami Center
Wed 04:00:58 PM 28.0797 -83.3739 182° South 539 620 35,000  Level Miami Center
Wed 04:01:58 PM 27.9300 -83.3653 177° South 539 620 35,000  Level Miami Center
Wed 04:02:58 PM 27.7872 -83.2936 156° South 539 620 35,000 -200 Level Miami Center
Wed 04:03:58 PM 27.6606 -83.1906 144° Southeast 538 619 34,600 -1,650 Descending Miami Center
Wed 04:04:58 PM 27.5294 -83.0872 145° Southeast 560 644 31,700 -2,950 Descending Miami Center
Wed 04:05:58 PM 27.4003 -82.9822 144° Southeast 575 662 28,700 -2,950 Descending Miami Center
Wed 04:06:58 PM 27.2772 -82.8844 145° Southeast 575 662 25,800 -2,800 Descending Miami Center
Wed 04:07:58 PM 27.1619 -82.7922 145° Southeast 541 623 23,100 -2,650 Descending Miami Center
Wed 04:08:58 PM 27.0489 -82.7025 145° Southeast 512 589 20,500 -2,550 Descending Miami Center
Wed 04:09:58 PM 26.9417 -82.6181 145° Southeast 495 570 18,000 -2,400 Descending Miami Center
Wed 04:10:58 PM 26.8406 -82.5364 144° Southeast 471 542 15,700 -2,250 Descending Miami Center
Wed 04:11:58 PM 26.7453 -82.4619 145° Southeast 445 512 13,500 -2,250 Descending Miami Center
Wed 04:12:58 PM 26.6522 -82.3878 145° Southeast 422 486 11,200 -1,300 Descending Miami Center
Wed 04:13:58 PM 26.5567 -82.3183 147° Southeast 417 480 10,900 -550 Descending Miami Center
Wed 04:14:58 PM 26.4794 -82.2614 147° Southeast 381 438 10,100 -1,200 Descending Miami Center
Wed 04:15:58 PM 26.4122 -82.2167 149° Southeast 325 374 8,500 -1,550 Descending Miami Center
Wed 04:16:58 PM 26.3472 -82.1672 146° Southeast 292 336 7,000 -750 Descending Miami Center
Wed 04:17:58 PM 26.2864 -82.1206 145° Southeast 280 322 7,000 -350 Level Miami Center
Wed 04:18:58 PM 26.2361 -82.0653 135° Southeast 266 306 6,300 -1,000 Descending Miami Center
Wed 04:19:58 PM 26.2431 -81.9892 84° East 222 255 5,000 -1,300 Descending Miami Center
Wed 04:21:00 PM 26.1845 -81.8511 149° Southeast  Level Estimated
Wed 04:28:00 PM 26.1524 -81.7756 66° East  Level Estimated
Wed 04:29:00 PM 26.1524 -81.7756 66° East  Level Estimated
Wed 04:30:00 PM 26.1524 -81.7756 66° East  Level Estimated
Wed 04:31:00 PM 26.1524 -81.7756 66° East  Level Estimated
Wed 04:32:00 PM 26.1524 -81.7756 66° East  Level Estimated
Wed 04:33:00 PM 26.1524 -81.7756 66° East  Level Estimated
Wed 04:34:00 PM 26.1524 -81.7756 66° East  Level Estimated
Wed 04:35:00 PM 26.1524 -81.7756 66° East  Level Estimated
Wed 04:36:00 PM 26.1524 -81.7756 66° East  Level Estimated

Login

Don't have an account? Register now (free) for customized features, flight alerts, and more!